Time;durP1;ratioP1;P1;durP2;ratioP2;P2;SDS_P1;SDS_P2;PMS_P1;PMS_P2;Temp;Humidity;BMP_temperature;BMP_pressure;BME280_temperature;BME280_humidity;BME280_pressure;Samples;Min_cycle;Max_cycle;Signal;HPM_P1;HPM_P2
2022/05/08 00:00:08;;;;;;;2.47;1.25;;;;;;;7.92;69.71;101885.92;1920671;73;21054;-64
2022/05/08 00:02:42;;;;;;;2.05;0.72;;;;;;;7.91;69.75;101893.34;1941083;73;21076;-65
2022/05/08 00:05:12;;;;;;;3.92;2.55;;;;;;;7.89;69.83;101889.45;1946150;73;21071;-65
2022/05/08 00:07:40;;;;;;;1.55;0.90;;;;;;;7.89;69.86;101887.25;1954582;72;21092;-64
2022/05/08 00:10:09;;;;;;;3.25;1.72;;;;;;;7.87;69.87;101891.64;1955444;73;21564;-65
2022/05/08 00:12:38;;;;;;;2.72;1.62;;;;;;;7.86;69.92;101894.72;1955125;73;21047;-66
2022/05/08 00:15:08;;;;;;;5.00;1.65;;;;;;;7.86;69.95;101898.65;1952974;72;21070;-62
2022/05/08 00:17:37;;;;;;;4.33;1.70;;;;;;;7.85;69.99;101892.10;1942786;73;21106;-61
2022/05/08 00:20:08;;;;;;;2.00;1.27;;;;;;;7.83;70.00;101899.12;1948322;73;21191;-61
2022/05/08 00:22:38;;;;;;;3.08;1.17;;;;;;;7.83;70.03;101893.88;1948617;73;21044;-58
2022/05/08 00:25:07;;;;;;;1.22;0.93;;;;;;;7.81;70.04;101892.57;1954623;72;21044;-62
2022/05/08 00:27:36;;;;;;;1.80;1.35;;;;;;;7.83;70.05;101903.05;1954577;71;21133;-61
2022/05/08 00:30:06;;;;;;;1.98;1.32;;;;;;;7.85;70.09;101898.66;1953709;73;21092;-61
2022/05/08 00:32:35;;;;;;;1.25;0.82;;;;;;;7.87;70.10;101898.20;1933796;73;21016;-60
2022/05/08 00:35:04;;;;;;;1.72;0.72;;;;;;;7.89;70.13;101895.11;1954701;73;21004;-62
2022/05/08 00:37:33;;;;;;;1.45;0.95;;;;;;;7.92;70.09;101899.03;1954649;72;21068;-61
2022/05/08 00:40:01;;;;;;;3.05;0.80;;;;;;;7.94;70.06;101897.26;1981175;72;21106;-62
2022/05/08 00:42:30;;;;;;;0.80;0.60;;;;;;;7.95;70.02;101899.02;1984013;71;21125;-61
2022/05/08 00:44:58;;;;;;;1.17;0.70;;;;;;;7.96;70.00;101899.42;1985262;71;21493;-61
2022/05/08 00:47:27;;;;;;;2.08;1.40;;;;;;;7.97;69.97;101904.22;1986241;71;21082;-60
2022/05/08 00:49:56;;;;;;;1.27;0.70;;;;;;;7.97;69.92;101901.17;1982344;71;21024;-60
2022/05/08 00:52:27;;;;;;;3.08;1.70;;;;;;;7.97;69.92;101898.97;1989782;72;21172;-61
2022/05/08 00:54:55;;;;;;;1.62;1.07;;;;;;;7.96;69.90;101908.60;1989806;71;21165;-61
2022/05/08 00:57:25;;;;;;;1.90;1.00;;;;;;;7.94;69.91;101901.19;1955307;71;21039;-61
2022/05/08 00:59:54;;;;;;;2.10;1.02;;;;;;;7.94;69.90;101902.50;1951068;71;21129;-61
2022/05/08 01:02:23;;;;;;;1.05;0.90;;;;;;;7.94;69.90;101901.19;1948416;71;21063;-60
2022/05/08 01:04:51;;;;;;;1.22;1.12;;;;;;;7.94;69.89;101902.50;1981853;71;21106;-62
2022/05/08 01:07:21;;;;;;;0.82;0.80;;;;;;;7.93;69.91;101906.03;1986549;71;21121;-60
2022/05/08 01:09:51;;;;;;;2.20;0.90;;;;;;;7.92;69.90;101904.28;1989656;71;21030;-60
2022/05/08 01:12:21;;;;;;;1.07;0.98;;;;;;;7.92;69.90;101909.52;1981816;72;21039;-61
2022/05/08 01:15:09;;;;;;;1.65;1.20;;;;;;;7.91;69.90;101901.21;1983453;71;21485;-59
2022/05/08 01:17:37;;;;;;;1.50;0.98;;;;;;;7.90;69.88;101902.11;1989714;71;21598;-58
2022/05/08 01:20:07;;;;;;;1.90;1.27;;;;;;;7.89;69.87;101891.19;1980138;72;21023;-59
2022/05/08 01:22:36;;;;;;;1.20;0.85;;;;;;;7.90;69.87;101892.94;1954727;71;21059;-60
2022/05/08 01:25:06;;;;;;;1.55;1.10;;;;;;;7.90;69.90;101887.69;1954661;71;21023;-58
2022/05/08 01:27:34;;;;;;;1.95;1.22;;;;;;;7.88;69.90;101887.70;1952933;73;21128;-61
2022/05/08 01:30:05;;;;;;;1.72;1.35;;;;;;;7.89;69.91;101891.19;1955298;71;21236;-61
2022/05/08 01:32:34;;;;;;;3.30;1.65;;;;;;;7.88;69.93;101892.95;1955162;71;21145;-59
2022/05/08 01:35:02;;;;;;;2.15;1.98;;;;;;;7.88;69.89;101893.39;1955165;72;21530;-61
2022/05/08 01:37:31;;;;;;;1.92;1.32;;;;;;;7.88;69.89;101886.39;1955457;71;21114;-62
2022/05/08 01:40:00;;;;;;;1.45;1.25;;;;;;;7.88;69.87;101893.39;1954949;71;21552;-61
2022/05/08 01:42:28;;;;;;;1.87;1.50;;;;;;;7.88;69.88;101894.25;1954586;73;21020;-60
2022/05/08 01:44:57;;;;;;;1.98;1.50;;;;;;;7.87;69.87;101892.95;1979623;72;20995;-60
2022/05/08 01:50:13;;;;;;;2.70;1.25;;;;;;;7.87;69.83;101899.51;1990025;71;21509;-61
2022/05/08 01:52:41;;;;;;;0.60;0.50;;;;;;;7.85;69.83;101903.91;1991607;72;21532;-63
2022/05/08 01:55:10;;;;;;;0.60;0.60;;;;;;;7.84;69.84;101906.08;1990693;71;21102;-61
2022/05/08 01:57:39;;;;;;;1.90;1.20;;;;;;;7.82;69.87;101901.30;1990094;71;21517;-62
2022/05/08 02:00:08;;;;;;;0.85;0.72;;;;;;;7.80;69.86;101899.13;1988116;71;21135;-59
2022/05/08 02:02:40;;;;;;;1.05;0.90;;;;;;;7.79;69.87;101894.79;1956335;70;21108;-61
2022/05/08 02:05:09;;;;;;;0.98;0.75;;;;;;;7.76;69.92;101897.42;1955476;72;21502;-59
2022/05/08 02:07:38;;;;;;;0.90;0.80;;;;;;;7.74;69.92;101903.54;1954743;72;21091;-59
2022/05/08 02:10:07;;;;;;;0.98;0.70;;;;;;;7.72;69.90;101904.00;1970309;71;21539;-61
2022/05/08 02:12:37;;;;;;;0.88;0.82;;;;;;;7.71;69.89;101911.91;1985965;71;21079;-59
2022/05/08 02:15:08;;;;;;;1.37;1.27;;;;;;;7.68;69.90;101911.47;1987824;71;21074;-61
2022/05/08 02:17:37;;;;;;;1.25;1.15;;;;;;;7.68;69.90;101919.34;1989949;72;20995;-59
2022/05/08 02:20:07;;;;;;;0.60;0.60;;;;;;;7.66;69.91;101917.62;1989885;71;21588;-59
2022/05/08 02:22:40;;;;;;;5.33;1.10;;;;;;;7.66;69.91;101921.55;1986119;71;21113;-62
2022/05/08 02:25:09;;;;;;;2.00;1.12;;;;;;;7.65;69.90;101923.28;1991225;70;21055;-60
2022/05/08 02:27:39;;;;;;;3.60;1.50;;;;;;;7.65;69.92;101923.73;1993195;71;21023;-61
2022/05/08 02:30:11;;;;;;;1.45;0.90;;;;;;;7.64;69.93;101921.56;1997441;71;21502;-62
2022/05/08 02:32:40;;;;;;;2.12;1.27;;;;;;;7.64;69.96;101923.31;1987718;71;21047;-62
2022/05/08 02:35:10;;;;;;;3.65;1.35;;;;;;;7.65;69.92;101932.45;1983939;71;21031;-61
2022/05/08 02:37:40;;;;;;;1.00;0.93;;;;;;;7.65;69.92;101936.84;1987996;71;21458;-61
2022/05/08 02:40:10;;;;;;;3.08;1.00;;;;;;;7.65;69.94;101935.08;1956982;72;21000;-59
2022/05/08 02:42:42;;;;;;;2.40;1.85;;;;;;;7.65;69.98;101936.39;1955367;72;21125;-61
2022/05/08 02:45:11;;;;;;;0.70;0.70;;;;;;;7.67;69.97;101937.69;1955487;72;21102;-59
2022/05/08 02:47:41;;;;;;;1.57;1.20;;;;;;;7.67;69.96;101942.52;1948144;72;21178;-61
2022/05/08 02:50:12;;;;;;;1.75;1.35;;;;;;;7.69;69.97;101947.30;1961760;71;21051;-60
2022/05/08 02:52:41;;;;;;;4.15;1.20;;;;;;;7.70;70.00;101949.03;1989665;72;21106;-62
2022/05/08 03:00:48;;;;;;;3.10;1.15;;;;;;;7.76;70.01;101959.91;1983169;71;21055;-60
2022/05/08 03:03:17;;;;;;;1.32;1.12;;;;;;;7.78;70.00;101961.21;1985082;72;21043;-60
2022/05/08 03:05:48;;;;;;;1.55;1.17;;;;;;;7.81;70.02;101961.20;1958374;72;21076;-61
2022/05/08 03:08:17;;;;;;;12.75;2.33;;;;;;;7.84;69.99;101962.46;1954241;72;21101;-60
2022/05/08 03:13:54;;;;;;;2.67;1.65;;;;;;;7.91;70.00;101969.40;1953864;71;21047;-59
2022/05/08 03:16:23;;;;;;;4.87;1.92;;;;;;;7.95;69.93;101976.38;1878964;73;21185;-61
2022/05/08 03:18:52;;;;;;;4.40;2.22;;;;;;;7.99;69.87;101978.09;1886015;75;21130;-59
2022/05/08 03:21:20;;;;;;;2.02;1.57;;;;;;;8.03;69.87;101990.29;1880643;74;21263;-58
2022/05/08 03:23:49;;;;;;;2.87;2.33;;;;;;;8.07;69.82;101989.37;1888499;76;21554;-60
2022/05/08 03:26:21;;;;;;;4.35;1.40;;;;;;;8.08;69.80;101991.12;1886814;74;21570;-58
2022/05/08 03:28:50;;;;;;;1.70;1.20;;;;;;;8.13;69.75;101997.62;1885305;75;21638;-59
2022/05/08 03:31:18;;;;;;;4.35;2.52;;;;;;;8.16;69.72;101998.06;1918756;75;21054;-60
2022/05/08 03:33:47;;;;;;;2.30;1.42;;;;;;;8.19;69.69;101997.59;1914376;73;21136;-58
2022/05/08 03:36:16;;;;;;;6.58;2.27;;;;;;;8.23;69.64;102002.38;1908650;73;21077;-59
2022/05/08 03:38:47;;;;;;;3.98;2.80;;;;;;;8.26;69.62;102006.27;1881898;75;21149;-59
2022/05/08 03:41:15;;;;;;;15.78;7.95;;;;;;;8.31;69.60;102013.66;1886708;75;21118;-59
2022/05/08 03:43:46;;;;;;;5.42;3.05;;;;;;;8.35;69.54;102012.73;1886852;75;21054;-60
2022/05/08 03:46:15;;;;;;;6.22;2.72;;;;;;;8.40;69.52;102021.45;1884449;75;21507;-60
2022/05/08 03:48:44;;;;;;;2.67;1.10;;;;;;;8.44;69.48;102015.30;1918610;75;21469;-60
2022/05/08 03:51:13;;;;;;;14.20;3.37;;;;;;;8.49;69.47;102018.77;1908484;73;21075;-61
2022/05/08 03:53:43;;;;;;;8.00;3.95;;;;;;;8.53;69.43;102017.43;1917633;73;21078;-60
2022/05/08 03:56:12;;;;;;;4.60;3.25;;;;;;;8.59;69.35;102005.09;1912314;75;21070;-58
2022/05/08 03:58:44;;;;;;;2.62;1.27;;;;;;;8.67;69.29;102018.16;1911484;73;21152;-59
2022/05/08 04:01:12;;;;;;;1.55;1.27;;;;;;;8.73;69.24;102019.40;1901471;73;21164;-60
2022/05/08 04:03:41;;;;;;;1.82;1.57;;;;;;;8.78;69.15;102022.85;1887380;74;21072;-60
2022/05/08 04:06:10;;;;;;;2.60;1.62;;;;;;;8.84;69.13;102033.28;1878533;76;21076;-61
2022/05/08 04:08:38;;;;;;;6.00;2.42;;;;;;;8.93;69.08;102036.67;1895359;74;21105;-60
2022/05/08 04:11:07;;;;;;;8.83;1.82;;;;;;;9.02;69.02;102033.52;1911335;73;21145;-58
2022/05/08 04:13:35;;;;;;;1.30;0.88;;;;;;;9.13;68.95;102038.65;1910558;73;21144;-60
2022/05/08 04:16:17;;;;;;;2.12;1.37;;;;;;;9.23;68.86;102035.00;1910796;74;21063;-59
2022/05/08 04:18:46;;;;;;;1.25;0.88;;;;;;;9.32;68.79;102039.28;1908693;75;21130;-60
2022/05/08 04:21:15;;;;;;;2.12;1.50;;;;;;;9.44;68.74;102043.48;1885873;73;21576;-58
2022/05/08 04:26:30;;;;;;;7.00;2.72;;;;;;;9.73;68.70;102036.97;1882120;75;21146;-62
2022/05/08 04:28:59;;;;;;;3.70;2.08;;;;;;;10.10;68.51;102036.39;1880350;74;21634;-62
2022/05/08 04:31:29;;;;;;;1.98;0.65;;;;;;;10.39;68.46;102038.57;1884707;74;21625;-60
2022/05/08 04:33:58;;;;;;;4.92;2.20;;;;;;;10.69;68.35;102038.91;1885510;74;21156;-59
2022/05/08 04:36:26;;;;;;;6.95;3.20;;;;;;;11.04;68.17;102044.80;1882011;74;21059;-60
2022/05/08 04:38:55;;;;;;;3.62;1.52;;;;;;;11.38;67.61;102042.80;1883821;73;21076;-60
2022/05/08 04:41:23;;;;;;;2.10;1.45;;;;;;;11.79;67.61;102049.77;1900787;73;21600;-62
2022/05/08 04:43:57;;;;;;;9.80;3.02;;;;;;;12.25;67.30;102043.02;1917029;75;21074;-59
2022/05/08 04:46:23;;;;;;;3.72;2.55;;;;;;;12.68;66.64;102044.06;1916415;74;21078;-61
2022/05/08 04:48:52;;;;;;;5.72;2.67;;;;;;;13.07;66.46;102040.35;1905166;73;21154;-62
2022/05/08 04:51:21;;;;;;;6.08;2.83;;;;;;;12.97;65.84;102045.05;1880171;75;21150;-60
2022/05/08 04:53:49;;;;;;;2.58;1.62;;;;;;;12.95;65.83;102044.23;1884369;74;21637;-62
2022/05/08 04:56:18;;;;;;;5.50;3.12;;;;;;;13.17;65.12;102034.33;1881734;75;21084;-61
2022/05/08 04:58:47;;;;;;;4.90;2.62;;;;;;;13.34;64.84;102034.75;1881243;74;21130;-60
2022/05/08 05:01:15;;;;;;;6.22;2.62;;;;;;;13.36;64.36;102043.50;1887232;76;21085;-60
2022/05/08 05:03:44;;;;;;;4.12;2.33;;;;;;;13.59;64.19;102038.81;1883861;75;21082;-60
2022/05/08 05:06:12;;;;;;;5.20;3.92;;;;;;;13.95;64.18;102043.02;1875173;74;21078;-62
2022/05/08 05:08:41;;;;;;;17.02;5.45;;;;;;;14.31;63.90;102042.70;1879723;76;21018;-62
2022/05/08 05:11:10;;;;;;;6.17;3.60;;;;;;;14.50;63.40;102033.22;1885916;73;21143;-62
2022/05/08 05:13:40;;;;;;;4.97;2.05;;;;;;;14.83;63.61;102035.62;1884046;73;21585;-60
2022/05/08 05:16:08;;;;;;;2.55;1.90;;;;;;;15.21;63.53;102046.59;1919249;74;21509;-61
2022/05/08 05:18:38;;;;;;;2.95;1.45;;;;;;;15.46;62.76;102044.34;1906620;74;21059;-59
2022/05/08 05:21:07;;;;;;;2.25;1.37;;;;;;;15.56;62.05;102042.58;1884255;75;21466;-60
2022/05/08 05:23:36;;;;;;;6.03;2.42;;;;;;;15.60;61.35;102041.55;1868582;75;21119;-60
2022/05/08 05:26:05;;;;;;;4.12;2.25;;;;;;;15.67;61.20;102034.19;1918647;73;21565;-59
2022/05/08 05:28:34;;;;;;;2.25;1.50;;;;;;;15.82;60.95;102032.30;1918600;73;21146;-60
2022/05/08 05:31:02;;;;;;;4.00;2.00;;;;;;;16.03;60.13;102023.05;1919345;73;21164;-59
2022/05/08 05:33:31;;;;;;;7.22;2.10;;;;;;;16.18;59.30;102029.03;1919512;73;21161;-59
2022/05/08 05:36:00;;;;;;;4.22;2.05;;;;;;;16.25;58.07;102025.66;1918966;73;21108;-60
2022/05/08 05:38:28;;;;;;;6.05;2.92;;;;;;;16.40;57.38;102017.50;1919016;73;21064;-67
2022/05/08 05:40:58;;;;;;;3.98;2.75;;;;;;;16.43;56.83;102016.02;1917791;73;21074;-62
2022/05/08 05:43:27;;;;;;;5.33;3.40;;;;;;;16.69;57.06;102018.88;1914365;73;21042;-60
2022/05/08 05:48:42;;;;;;;3.70;2.70;;;;;;;17.26;57.10;102020.77;1913157;73;21102;-61
2022/05/08 05:51:11;;;;;;;4.78;2.55;;;;;;;17.52;56.29;102015.53;1908984;73;21039;-61
2022/05/08 05:53:40;;;;;;;3.65;2.27;;;;;;;17.75;55.50;102013.10;1870838;75;21086;-63
2022/05/08 05:56:09;;;;;;;3.05;1.77;;;;;;;17.78;53.13;102017.41;1874737;75;21145;-60
2022/05/08 05:58:38;;;;;;;3.67;2.40;;;;;;;17.82;52.92;102013.20;1892965;73;21466;-62
2022/05/08 06:01:07;;;;;;;2.52;1.70;;;;;;;17.88;52.27;102016.06;1874204;74;21039;-62
2022/05/08 06:03:37;;;;;;;7.22;2.65;;;;;;;17.85;52.25;102006.87;1882311;73;21526;-67
2022/05/08 06:06:06;;;;;;;3.15;1.57;;;;;;;17.99;52.34;102012.39;1919572;73;21541;-62
2022/05/08 06:08:34;;;;;;;2.98;1.92;;;;;;;18.18;52.04;102008.79;1901314;74;21067;-64
2022/05/08 06:11:03;;;;;;;1.98;1.45;;;;;;;18.44;52.38;102014.11;1911244;73;21582;-64
2022/05/08 06:13:32;;;;;;;1.17;1.00;;;;;;;18.75;51.92;102008.02;1918628;75;21074;-66
2022/05/08 06:16:01;;;;;;;2.33;1.30;;;;;;;18.89;51.66;102017.52;1892748;74;21076;-64
2022/05/08 06:18:30;;;;;;;3.12;1.37;;;;;;;19.02;51.20;102010.20;1878766;76;21589;-65
2022/05/08 06:20:58;;;;;;;1.98;1.50;;;;;;;19.21;51.20;102010.89;1883913;74;21063;-64
2022/05/08 06:23:27;;;;;;;5.55;1.47;;;;;;;19.39;50.12;102014.35;1912448;73;21165;-63
2022/05/08 06:25:57;;;;;;;3.17;1.37;;;;;;;19.38;49.25;102013.09;1910075;73;21164;-63
2022/05/08 06:28:26;;;;;;;2.70;1.20;;;;;;;19.29;48.30;102014.02;1906956;73;21078;-63
2022/05/08 06:30:55;;;;;;;2.98;1.00;;;;;;;19.27;47.40;102005.68;1906677;73;21067;-63
2022/05/08 06:33:24;;;;;;;2.00;1.22;;;;;;;19.56;48.61;102005.87;1913277;74;21050;-66
2022/05/08 06:35:54;;;;;;;2.72;1.75;;;;;;;19.83;47.83;102003.45;1916909;73;21071;-61
2022/05/08 06:38:22;;;;;;;1.50;0.93;;;;;;;20.22;48.10;101999.37;1895221;73;21565;-63
2022/05/08 06:40:51;;;;;;;2.35;0.90;;;;;;;20.61;47.96;101989.91;1885026;73;21586;-63
2022/05/08 06:43:20;;;;;;;1.45;1.10;;;;;;;20.74;46.53;101994.03;1889944;74;21098;-61
2022/05/08 06:45:48;;;;;;;1.50;1.10;;;;;;;20.66;45.79;101986.94;1880557;74;21170;-63
2022/05/08 06:48:17;;;;;;;14.87;1.30;;;;;;;20.67;45.48;101982.84;1887414;74;21577;-62
2022/05/08 06:50:46;;;;;;;1.42;0.50;;;;;;;20.87;45.34;101982.93;1913858;74;21050;-62
2022/05/08 06:53:14;;;;;;;4.33;1.27;;;;;;;20.98;44.15;101979.58;1906847;75;21122;-63
2022/05/08 06:55:45;;;;;;;2.35;1.00;;;;;;;21.00;43.67;101976.33;1893383;73;21031;-67
2022/05/08 06:58:13;;;;;;;0.75;0.70;;;;;;;21.40;44.01;101969.74;1882507;74;21075;-65
2022/05/08 07:03:28;;;;;;;1.25;0.80;;;;;;;21.48;42.24;101977.31;1882069;74;21152;-64
2022/05/08 07:06:00;;;;;;;0.98;0.88;;;;;;;21.53;41.53;101973.85;1884045;75;21121;-64
2022/05/08 07:08:48;;;;;;;2.33;1.15;;;;;;;21.33;40.01;101971.09;1883744;74;21197;-61
2022/05/08 07:11:17;;;;;;;3.10;1.60;;;;;;;21.26;40.06;101967.95;1883840;74;21081;-61
2022/05/08 07:13:46;;;;;;;2.10;1.07;;;;;;;21.40;40.02;101968.41;1886025;74;21083;-61
2022/05/08 07:16:15;;;;;;;1.02;0.90;;;;;;;21.52;39.77;101978.81;1883187;74;21066;-61
2022/05/08 07:18:43;;;;;;;5.53;1.02;;;;;;;21.62;39.64;101973.73;1872619;74;21161;-62
2022/05/08 07:21:12;;;;;;;1.92;1.02;;;;;;;21.70;38.82;101974.06;1882899;74;21132;-63
2022/05/08 07:23:40;;;;;;;1.62;0.80;;;;;;;21.78;38.91;101965.90;1885288;74;21074;-63
2022/05/08 07:26:09;;;;;;;2.58;1.05;;;;;;;22.06;38.96;101969.85;1880869;74;21171;-60
2022/05/08 07:28:38;;;;;;;2.52;1.20;;;;;;;22.05;38.15;101968.16;1894387;74;21044;-62
2022/05/08 07:31:07;;;;;;;2.30;1.30;;;;;;;22.16;37.91;101958.39;1915558;74;21537;-62
2022/05/08 07:33:39;;;;;;;5.40;0.88;;;;;;;22.18;36.94;101966.34;1925981;73;21153;-60
2022/05/08 07:36:15;;;;;;;3.47;1.10;;;;;;;22.16;37.03;101960.23;1925748;73;21072;-59
2022/05/08 07:38:46;;;;;;;2.27;1.25;;;;;;;22.20;36.66;101954.17;1922587;74;21373;-61
2022/05/08 07:41:35;;;;;;;2.30;1.02;;;;;;;22.29;36.69;101958.44;1925542;74;21095;-64
2022/05/08 07:46:53;;;;;;;0.82;0.78;;;;;;;23.24;37.32;101958.00;1919199;73;21088;-60
2022/05/08 07:49:22;;;;;;;3.65;1.10;;;;;;;23.47;36.31;101955.82;1946500;73;21485;-62
2022/05/08 07:52:09;;;;;;;3.72;1.30;;;;;;;23.33;36.04;101951.95;1883672;76;21050;-63
2022/05/08 07:54:38;;;;;;;1.95;1.20;;;;;;;23.40;35.79;101944.30;1818013;78;21057;-64
2022/05/08 08:11:38;;;;;;;3.52;0.88;;;;;;;23.76;33.90;101935.30;1935531;73;25830;-74
2022/05/08 08:14:07;;;;;;;3.30;0.80;;;;;;;23.44;32.67;101939.94;1885610;76;21140;-67
2022/05/08 08:16:36;;;;;;;2.05;0.62;;;;;;;22.87;31.33;101938.70;1885479;76;21035;-69
2022/05/08 08:19:04;;;;;;;2.02;1.20;;;;;;;22.65;31.71;101934.02;1885683;76;21043;-70
2022/05/08 08:21:33;;;;;;;1.62;1.00;;;;;;;22.67;32.51;101930.73;1887712;75;21097;-70
2022/05/08 08:24:02;;;;;;;4.03;0.95;;;;;;;23.06;33.30;101928.00;1885529;76;21486;-73
2022/05/08 08:26:31;;;;;;;2.92;0.72;;;;;;;23.54;33.67;101929.84;1885561;76;21059;-71
2022/05/08 08:28:59;;;;;;;3.12;0.90;;;;;;;24.01;33.71;101921.33;1885572;76;21110;-75
2022/05/08 08:31:28;;;;;;;3.10;1.10;;;;;;;24.28;33.62;101922.37;1885579;76;21044;-74
2022/05/08 08:33:58;;;;;;;2.35;0.90;;;;;;;24.61;33.67;101918.86;1885720;75;21101;-77
2022/05/08 08:36:26;;;;;;;1.98;1.00;;;;;;;24.65;32.99;101917.63;1903231;75;21028;-69
2022/05/08 08:38:55;;;;;;;3.35;0.62;;;;;;;24.64;33.53;101917.28;1918327;73;21000;-71
2022/05/08 08:41:26;;;;;;;5.25;0.88;;;;;;;24.91;33.18;101917.36;1918140;74;21040;-60
2022/05/08 08:49:38;;;;;;;0.62;0.60;;;;;;;25.60;33.42;101905.40;1918129;75;21028;-58
2022/05/08 08:52:07;;;;;;;2.00;0.72;;;;;;;25.68;32.49;101911.02;1912251;74;21149;-63
2022/05/08 08:54:36;;;;;;;4.28;1.12;;;;;;;25.51;32.52;101909.75;1892309;75;21459;-63
2022/05/08 08:57:05;;;;;;;0.37;0.33;;;;;;;25.57;32.05;101912.42;1885674;76;21068;-61
2022/05/08 08:59:34;;;;;;;1.02;0.50;;;;;;;24.99;28.74;101908.17;1907973;75;21035;-61
2022/05/08 09:02:03;;;;;;;0.30;0.30;;;;;;;24.27;27.80;101899.11;1894172;75;21160;-60
2022/05/08 09:04:33;;;;;;;1.05;0.40;;;;;;;23.88;27.92;101900.78;1884892;76;21117;-62
2022/05/08 09:07:02;;;;;;;0.85;0.40;;;;;;;23.60;27.46;101905.17;1885563;76;21470;-60
2022/05/08 09:09:34;;;;;;;1.00;0.70;;;;;;;23.51;27.39;101906.22;1885026;76;21055;-60
2022/05/08 09:12:05;;;;;;;5.67;0.70;;;;;;;23.30;27.90;101911.39;1900286;74;21047;-60
2022/05/08 09:14:36;;;;;;;1.52;0.60;;;;;;;23.37;28.43;101901.52;1890166;75;21494;-60
2022/05/08 09:17:07;;;;;;;0.60;0.60;;;;;;;23.76;29.02;101905.72;1892201;74;21179;-60
2022/05/08 09:19:41;;;;;;;0.80;0.62;;;;;;;23.91;28.48;101902.87;1891370;76;21053;-61
2022/05/08 09:22:16;;;;;;;1.85;0.85;;;;;;;23.85;28.29;101892.95;1905744;74;21040;-61
2022/05/08 09:24:53;;;;;;;7.05;0.90;;;;;;;24.02;28.82;101900.20;1924026;74;21055;-60
2022/05/08 09:27:22;;;;;;;0.33;0.30;;;;;;;24.17;28.89;101898.98;1924584;74;21423;-62
2022/05/08 09:29:54;;;;;;;2.55;1.02;;;;;;;24.42;28.79;101902.41;1924439;74;21011;-62
2022/05/08 09:32:42;;;;;;;2.52;1.00;;;;;;;24.25;28.88;101895.22;1918165;74;21490;-61
2022/05/08 09:35:10;;;;;;;1.98;0.42;;;;;;;24.07;28.56;101889.94;1924689;74;21059;-62
2022/05/08 09:37:54;;;;;;;1.05;0.95;;;;;;;24.06;28.94;101884.17;1924329;74;21023;-63
2022/05/08 09:40:24;;;;;;;0.95;0.50;;;;;;;23.95;28.43;101878.78;1924630;74;21486;-60
2022/05/08 09:42:52;;;;;;;4.95;0.70;;;;;;;23.67;28.16;101883.57;1920637;74;21611;-62
2022/05/08 09:45:21;;;;;;;0.80;0.70;;;;;;;23.73;28.62;101883.59;1924572;74;21129;-61
2022/05/08 09:47:51;;;;;;;1.30;1.22;;;;;;;23.53;28.39;101894.02;1907232;74;21071;-62
2022/05/08 09:50:20;;;;;;;2.37;0.70;;;;;;;23.44;28.59;101886.66;1891361;76;21200;-60
2022/05/08 09:52:49;;;;;;;1.50;0.62;;;;;;;23.08;27.50;101878.55;1891577;76;21117;-62
2022/05/08 09:55:19;;;;;;;2.42;0.85;;;;;;;22.79;28.15;101882.48;1921973;74;21157;-62
2022/05/08 09:57:48;;;;;;;0.88;0.85;;;;;;;22.89;28.78;101875.00;1924564;74;21472;-60
2022/05/08 10:00:17;;;;;;;0.90;0.72;;;;;;;23.16;29.24;101878.47;1924675;74;21039;-60
2022/05/08 10:02:49;;;;;;;1.42;0.80;;;;;;;23.34;29.13;101875.75;1923498;74;21519;-62
2022/05/08 10:05:19;;;;;;;1.02;0.57;;;;;;;23.40;29.28;101872.59;1922355;74;21482;-60
2022/05/08 10:07:49;;;;;;;0.90;0.42;;;;;;;23.55;29.50;101881.81;1924619;74;21008;-61
2022/05/08 10:15:51;;;;;;;1.00;0.70;;;;;;;22.97;29.18;101870.40;1922088;74;21028;-63
2022/05/08 10:18:31;;;;;;;0.98;0.90;;;;;;;22.78;28.85;101879.41;1924663;74;21204;-59
2022/05/08 10:21:13;;;;;;;1.47;1.05;;;;;;;22.62;29.06;101876.52;1924854;74;21035;-59
2022/05/08 10:23:46;;;;;;;1.72;0.95;;;;;;;22.49;29.28;101875.69;1924432;74;21031;-60
2022/05/08 10:26:21;;;;;;;1.37;0.62;;;;;;;22.10;29.03;101874.83;1922271;74;21113;-60
2022/05/08 10:29:14;;;;;;;3.90;1.25;;;;;;;21.64;29.92;101878.85;1924657;74;21494;-58
2022/05/08 10:31:48;;;;;;;2.00;1.02;;;;;;;21.27;30.04;101865.70;1923158;74;21095;-62
2022/05/08 10:34:18;;;;;;;2.77;0.68;;;;;;;21.19;30.74;101865.73;1891300;76;21192;-61
2022/05/08 10:37:13;;;;;;;1.17;0.80;;;;;;;21.15;30.68;101868.70;1890038;75;21121;-62
2022/05/08 10:39:51;;;;;;;1.00;0.50;;;;;;;21.08;30.96;101860.23;1891412;76;21134;-62
2022/05/08 10:42:42;;;;;;;1.17;0.88;;;;;;;21.02;31.05;101856.59;1893412;74;21115;-63
2022/05/08 10:45:09;;;;;;;2.08;0.80;;;;;;;20.99;30.94;101854.14;1890718;75;21544;-65
2022/05/08 10:47:43;;;;;;;2.75;0.75;;;;;;;20.77;31.13;101851.51;1888591;76;21544;-63
2022/05/08 10:50:14;;;;;;;1.02;0.72;;;;;;;20.71;31.32;101852.37;1891388;75;21160;-63
2022/05/08 10:52:46;;;;;;;1.07;0.85;;;;;;;20.68;31.20;101846.75;1891521;74;21105;-63
2022/05/08 10:55:17;;;;;;;2.25;0.60;;;;;;;20.74;31.10;101849.02;1891380;76;21089;-62
2022/05/08 10:57:48;;;;;;;3.58;1.20;;;;;;;20.64;30.96;101851.92;1891501;76;21047;-62
2022/05/08 11:00:25;;;;;;;2.40;1.35;;;;;;;20.68;31.44;101848.58;1891404;76;21470;-62
2022/05/08 11:02:57;;;;;;;2.52;0.80;;;;;;;20.81;31.66;101853.02;1891422;76;21039;-62
2022/05/08 11:05:34;;;;;;;5.15;0.80;;;;;;;20.72;31.27;101853.61;1892638;74;21473;-61
2022/05/08 11:08:05;;;;;;;0.50;0.50;;;;;;;20.60;31.55;101842.31;1891391;76;21043;-62
2022/05/08 11:10:41;;;;;;;0.42;0.42;;;;;;;20.45;31.61;101844.16;1891403;76;21043;-63
2022/05/08 11:13:18;;;;;;;0.60;0.47;;;;;;;20.24;31.33;101846.38;1876323;75;21559;-63
2022/05/08 11:15:48;;;;;;;2.67;1.02;;;;;;;20.20;31.38;101844.85;1896928;75;21463;-61
2022/05/08 11:18:24;;;;;;;1.85;0.82;;;;;;;20.04;31.19;101840.92;1905225;75;21036;-61
2022/05/08 11:20:59;;;;;;;1.37;0.75;;;;;;;19.88;31.08;101833.45;1905163;74;21589;-62
2022/05/08 11:23:33;;;;;;;4.70;1.02;;;;;;;19.89;31.69;101840.05;1905124;75;21032;-62
2022/05/08 11:26:07;;;;;;;1.02;0.70;;;;;;;19.89;31.84;101836.04;1905189;75;21113;-63
2022/05/08 11:28:37;;;;;;;3.85;0.88;;;;;;;19.87;31.74;101837.95;1904157;74;21013;-62
2022/05/08 11:31:20;;;;;;;1.50;0.95;;;;;;;19.77;31.84;101831.42;1905171;75;21479;-62
2022/05/08 11:36:38;;;;;;;2.77;0.98;;;;;;;19.72;32.03;101825.01;1890877;75;21016;-64
2022/05/08 11:39:12;;;;;;;0.53;0.50;;;;;;;19.73;32.24;101828.56;1872642;77;21094;-63
2022/05/08 11:41:52;;;;;;;1.12;1.00;;;;;;;19.71;32.41;101817.08;1872879;76;21087;-61
2022/05/08 11:44:27;;;;;;;2.87;0.93;;;;;;;19.73;32.47;101816.54;1872686;75;21157;-62
2022/05/08 11:46:57;;;;;;;0.45;0.40;;;;;;;19.65;32.00;101815.16;1886606;75;21002;-63
2022/05/08 11:49:31;;;;;;;1.65;0.68;;;;;;;19.57;31.79;101813.44;1905077;75;21097;-63
2022/05/08 11:52:02;;;;;;;1.35;0.85;;;;;;;19.53;32.00;101809.23;1905064;75;21052;-62
2022/05/08 11:54:36;;;;;;;1.75;0.82;;;;;;;19.59;32.24;101806.19;1904514;74;21127;-62
2022/05/08 11:57:19;;;;;;;1.27;0.65;;;;;;;19.56;32.10;101809.03;1905244;75;21024;-63
2022/05/08 11:59:54;;;;;;;2.37;0.72;;;;;;;19.49;31.75;101810.34;1905337;75;21123;-62
2022/05/08 12:02:42;;;;;;;5.40;1.30;;;;;;;19.40;31.49;101808.22;1883034;74;21036;-63
2022/05/08 12:05:26;;;;;;;3.27;0.90;;;;;;;19.38;31.55;101806.13;1872596;75;21668;-63
2022/05/08 12:07:52;;;;;;;2.85;0.50;;;;;;;19.29;31.41;101806.19;1871462;76;21503;-63
2022/05/08 12:10:23;;;;;;;0.68;0.68;;;;;;;19.24;31.21;101800.28;1872758;77;21040;-63
2022/05/08 12:12:56;;;;;;;2.55;0.62;;;;;;;19.17;31.40;101802.44;1901268;74;21064;-65
2022/05/08 12:15:24;;;;;;;;;;;;;;;19.24;31.81;101803.80;1919609;74;21039;-65
2022/05/08 12:17:58;;;;;;;1.98;0.60;;;;;;;19.24;31.94;101797.61;1924512;74;20384;-65
2022/05/08 12:20:29;;;;;;;0.35;0.35;;;;;;;19.24;31.76;101794.94;1924516;74;21027;-65
2022/05/08 12:23:03;;;;;;;1.75;0.80;;;;;;;19.18;31.98;101795.28;1920049;74;21020;-66
2022/05/08 12:25:35;;;;;;;1.25;0.85;;;;;;;19.18;32.26;101791.27;1915595;74;21193;-69
2022/05/08 12:28:05;;;;;;;0.68;0.68;;;;;;;19.15;32.11;101790.99;1892338;74;21528;-67
2022/05/08 12:30:34;;;;;;;1.80;0.90;;;;;;;19.05;31.50;101781.33;1892506;74;21043;-67
2022/05/08 12:33:03;;;;;;;1.72;1.17;;;;;;;19.01;31.99;101785.59;1912023;74;21102;-68
2022/05/08 12:35:32;;;;;;;3.52;0.70;;;;;;;19.08;32.44;101784.29;1907682;74;21063;-69